sensor_id;sensor_type;location;lat;lon;timestamp;pressure;altitude;pressure_sealevel;temperature;humidity
45255;BME280;30989;52.078;21.014;2023-02-21T00:01:13;165391.41;;;6.26;100.00
45255;BME280;30989;52.078;21.014;2023-02-21T00:03:56;165399.41;;;6.29;100.00
45255;BME280;30989;52.078;21.014;2023-02-21T00:06:43;165402.09;;;6.30;100.00
45255;BME280;30989;52.078;21.014;2023-02-21T00:09:27;165404.75;;;6.31;100.00
45255;BME280;30989;52.078;21.014;2023-02-21T00:12:11;165415.44;;;6.35;100.00
45255;BME280;30989;52.078;21.014;2023-02-21T00:14:54;165422.13;;;6.37;100.00
45255;BME280;30989;52.078;21.014;2023-02-21T00:17:38;165456.84;;;6.51;100.00
45255;BME280;30989;52.078;21.014;2023-02-21T00:20:22;165468.88;;;6.55;100.00
45255;BME280;30989;52.078;21.014;2023-02-21T00:23:05;165476.88;;;6.58;100.00
45255;BME280;30989;52.078;21.014;2023-02-21T00:25:49;165471.53;;;6.56;100.00
45255;BME280;30989;52.078;21.014;2023-02-21T00:28:33;165460.84;;;6.52;100.00
45255;BME280;30989;52.078;21.014;2023-02-21T00:31:18;165460.84;;;6.52;100.00
45255;BME280;30989;52.078;21.014;2023-02-21T00:34:02;165467.53;;;6.55;100.00
45255;BME280;30989;52.078;21.014;2023-02-21T00:36:46;165472.88;;;6.57;100.00
45255;BME280;30989;52.078;21.014;2023-02-21T00:39:30;165471.53;;;6.56;100.00
45255;BME280;30989;52.078;21.014;2023-02-21T00:42:13;165476.88;;;6.58;100.00
45255;BME280;30989;52.078;21.014;2023-02-21T00:44:57;165480.91;;;6.60;100.00
45255;BME280;30989;52.078;21.014;2023-02-21T00:47:41;165486.25;;;6.62;100.00
45255;BME280;30989;52.078;21.014;2023-02-21T00:50:25;165503.59;;;6.68;100.00
45255;BME280;30989;52.078;21.014;2023-02-21T00:53:09;165500.94;;;6.67;100.00
45255;BME280;30989;52.078;21.014;2023-02-21T00:55:53;165495.59;;;6.65;100.00
45255;BME280;30989;52.078;21.014;2023-02-21T00:58:37;165499.59;;;6.67;100.00
45255;BME280;30989;52.078;21.014;2023-02-21T01:01:20;165496.94;;;6.66;100.00
45255;BME280;30989;52.078;21.014;2023-02-21T01:04:04;165530.31;;;6.78;100.00
45255;BME280;30989;52.078;21.014;2023-02-21T01:06:50;165511.63;;;6.71;100.00
45255;BME280;30989;52.078;21.014;2023-02-21T01:09:34;165518.31;;;6.74;100.00
45255;BME280;30989;52.078;21.014;2023-02-21T01:12:18;165522.31;;;6.75;100.00
45255;BME280;30989;52.078;21.014;2023-02-21T01:15:03;165520.97;;;6.75;100.00
45255;BME280;30989;52.078;21.014;2023-02-21T01:17:47;165515.63;;;6.73;100.00
45255;BME280;30989;52.078;21.014;2023-02-21T01:20:33;165511.63;;;6.71;100.00
45255;BME280;30989;52.078;21.014;2023-02-21T01:23:17;165511.63;;;6.71;100.00
45255;BME280;30989;52.078;21.014;2023-02-21T01:26:01;165508.94;;;6.70;100.00
45255;BME280;30989;52.078;21.014;2023-02-21T01:28:46;165507.63;;;6.70;100.00
45255;BME280;30989;52.078;21.014;2023-02-21T01:31:30;165504.94;;;6.69;100.00
45255;BME280;30989;52.078;21.014;2023-02-21T01:34:14;165506.28;;;6.69;100.00
45255;BME280;30989;52.078;21.014;2023-02-21T01:36:58;165508.94;;;6.70;100.00
45255;BME280;30989;52.078;21.014;2023-02-21T01:39:42;165516.97;;;6.73;100.00
45255;BME280;30989;52.078;21.014;2023-02-21T01:42:26;165527.66;;;6.77;100.00
45255;BME280;30989;52.078;21.014;2023-02-21T01:48:21;165538.34;;;6.82;100.00
45255;BME280;30989;52.078;21.014;2023-02-21T01:51:07;165499.59;;;6.67;100.00
45255;BME280;30989;52.078;21.014;2023-02-21T01:53:54;165503.59;;;6.68;100.00
45255;BME280;30989;52.078;21.014;2023-02-21T01:56:38;165508.94;;;6.70;100.00
45255;BME280;30989;52.078;21.014;2023-02-21T01:59:24;165498.25;;;6.66;100.00
45255;BME280;30989;52.078;21.014;2023-02-21T02:02:17;165492.91;;;6.64;100.00
45255;BME280;30989;52.078;21.014;2023-02-21T02:05:03;165484.91;;;6.61;100.00
45255;BME280;30989;52.078;21.014;2023-02-21T02:07:48;165491.59;;;6.64;100.00
45255;BME280;30989;52.078;21.014;2023-02-21T02:10:39;165491.59;;;6.64;100.00
45255;BME280;30989;52.078;21.014;2023-02-21T02:24:51;165514.28;;;6.72;100.00
45255;BME280;30989;52.078;21.014;2023-02-21T02:27:54;165518.31;;;6.74;100.00
45255;BME280;30989;52.078;21.014;2023-02-21T02:36:22;165508.94;;;6.70;100.00
45255;BME280;30989;52.078;21.014;2023-02-21T02:39:03;165499.59;;;6.67;100.00
45255;BME280;30989;52.078;21.014;2023-02-21T02:41:44;165487.56;;;6.62;100.00
45255;BME280;30989;52.078;21.014;2023-02-21T02:44:21;165476.88;;;6.58;100.00
45255;BME280;30989;52.078;21.014;2023-02-21T02:46:51;165460.84;;;6.52;100.00
45255;BME280;30989;52.078;21.014;2023-02-21T02:49:20;165447.50;;;6.47;100.00
45255;BME280;30989;52.078;21.014;2023-02-21T02:51:48;165443.50;;;6.45;100.00
45255;BME280;30989;52.078;21.014;2023-02-21T02:54:15;165439.50;;;6.44;100.00
45255;BME280;30989;52.078;21.014;2023-02-21T02:56:41;165444.84;;;6.46;100.00
45255;BME280;30989;52.078;21.014;2023-02-21T02:59:13;165435.47;;;6.42;100.00
45255;BME280;30989;52.078;21.014;2023-02-21T03:01:52;165454.19;;;6.50;100.00
45255;BME280;30989;52.078;21.014;2023-02-21T03:07:30;165446.16;;;6.46;100.00
45255;BME280;30989;52.078;21.014;2023-02-21T03:10:13;165419.44;;;6.36;100.00
45255;BME280;30989;52.078;21.014;2023-02-21T03:15:39;165418.13;;;6.36;100.00
45255;BME280;30989;52.078;21.014;2023-02-21T03:20:42;165403.41;;;6.30;99.61
45255;BME280;30989;52.078;21.014;2023-02-21T03:23:10;165419.44;;;6.36;99.03
45255;BME280;30989;52.078;21.014;2023-02-21T03:25:39;165415.44;;;6.35;98.63
45255;BME280;30989;52.078;21.014;2023-02-21T03:28:07;165403.41;;;6.30;100.00
45255;BME280;30989;52.078;21.014;2023-02-21T03:30:40;165398.09;;;6.28;99.53
45255;BME280;30989;52.078;21.014;2023-02-21T03:33:07;165372.72;;;6.19;98.72
45255;BME280;30989;52.078;21.014;2023-02-21T03:35:32;165379.38;;;6.21;98.75
45255;BME280;30989;52.078;21.014;2023-02-21T03:37:59;165386.06;;;6.24;96.61
45255;BME280;30989;52.078;21.014;2023-02-21T03:40:30;165391.41;;;6.26;96.99
45255;BME280;30989;52.078;21.014;2023-02-21T03:42:59;165382.06;;;6.22;96.68
45255;BME280;30989;52.078;21.014;2023-02-21T03:45:28;165384.72;;;6.23;96.56
45255;BME280;30989;52.078;21.014;2023-02-21T03:48:02;165372.72;;;6.19;96.42
45255;BME280;30989;52.078;21.014;2023-02-21T03:50:29;165340.66;;;6.06;96.77
45255;BME280;30989;52.078;21.014;2023-02-21T03:52:54;165354.00;;;6.11;97.59
45255;BME280;30989;52.078;21.014;2023-02-21T03:55:21;165342.00;;;6.07;96.80
45255;BME280;30989;52.078;21.014;2023-02-21T03:57:47;165328.63;;;6.02;98.46
45255;BME280;30989;52.078;21.014;2023-02-21T04:00:13;165324.63;;;6.00;98.53
45255;BME280;30989;52.078;21.014;2023-02-21T04:02:43;165316.63;;;5.97;98.27
45255;BME280;30989;52.078;21.014;2023-02-21T04:05:16;165312.63;;;5.96;97.72
45255;BME280;30989;52.078;21.014;2023-02-21T04:07:41;165277.84;;;5.82;98.44
45255;BME280;30989;52.078;21.014;2023-02-21T04:10:07;165297.94;;;5.90;98.61
45255;BME280;30989;52.078;21.014;2023-02-21T04:12:41;165285.84;;;5.86;99.13
45255;BME280;30989;52.078;21.014;2023-02-21T04:15:06;165276.50;;;5.82;99.15
45255;BME280;30989;52.078;21.014;2023-02-21T04:17:33;165263.16;;;5.77;99.10
45255;BME280;30989;52.078;21.014;2023-02-21T04:19:59;165260.50;;;5.76;98.90
45255;BME280;30989;52.078;21.014;2023-02-21T04:22:25;165256.50;;;5.74;98.24
45255;BME280;30989;52.078;21.014;2023-02-21T04:24:51;165247.13;;;5.71;98.43
45255;BME280;30989;52.078;21.014;2023-02-21T04:27:17;165243.13;;;5.69;97.38
45255;BME280;30989;52.078;21.014;2023-02-21T04:29:49;165231.13;;;5.65;98.09
45255;BME280;30989;52.078;21.014;2023-02-21T04:32:15;165239.13;;;5.68;95.37
45255;BME280;30989;52.078;21.014;2023-02-21T04:34:41;165241.81;;;5.69;95.81
45255;BME280;30989;52.078;21.014;2023-02-21T04:37:06;165231.13;;;5.65;94.81
45255;BME280;30989;52.078;21.014;2023-02-21T04:39:32;165224.44;;;5.62;94.93
45255;BME280;30989;52.078;21.014;2023-02-21T04:41:57;165227.13;;;5.63;93.48
45255;BME280;30989;52.078;21.014;2023-02-21T04:44:23;165231.13;;;5.65;93.27
45255;BME280;30989;52.078;21.014;2023-02-21T04:46:48;165228.44;;;5.64;92.62
45255;BME280;30989;52.078;21.014;2023-02-21T04:49:14;165228.44;;;5.64;92.66
45255;BME280;30989;52.078;21.014;2023-02-21T04:51:39;165205.75;;;5.55;93.71
45255;BME280;30989;52.078;21.014;2023-02-21T04:54:05;165215.09;;;5.59;92.13
45255;BME280;30989;52.078;21.014;2023-02-21T04:56:32;165217.78;;;5.60;92.95
45255;BME280;30989;52.078;21.014;2023-02-21T04:58:57;165209.75;;;5.57;93.74
45255;BME280;30989;52.078;21.014;2023-02-21T05:01:26;165209.75;;;5.57;93.18
45255;BME280;30989;52.078;21.014;2023-02-21T05:03:52;165208.44;;;5.56;93.94
45255;BME280;30989;52.078;21.014;2023-02-21T05:06:20;165215.09;;;5.59;93.15
45255;BME280;30989;52.078;21.014;2023-02-21T05:08:46;165217.78;;;5.60;92.67
45255;BME280;30989;52.078;21.014;2023-02-21T05:11:11;165224.44;;;5.62;93.33
45255;BME280;30989;52.078;21.014;2023-02-21T05:13:37;165223.09;;;5.62;93.91
45255;BME280;30989;52.078;21.014;2023-02-21T05:16:02;165231.13;;;5.65;93.78
45255;BME280;30989;52.078;21.014;2023-02-21T05:18:28;165224.44;;;5.62;93.54
45255;BME280;30989;52.078;21.014;2023-02-21T05:20:54;165233.78;;;5.66;94.67
45255;BME280;30989;52.078;21.014;2023-02-21T05:23:20;165236.47;;;5.67;94.27
45255;BME280;30989;52.078;21.014;2023-02-21T05:25:59;165225.78;;;5.63;93.46
45255;BME280;30989;52.078;21.014;2023-02-21T05:28:24;165233.78;;;5.66;94.34
45255;BME280;30989;52.078;21.014;2023-02-21T05:30:50;165228.44;;;5.64;94.78
45255;BME280;30989;52.078;21.014;2023-02-21T05:33:15;165223.09;;;5.62;93.20
45255;BME280;30989;52.078;21.014;2023-02-21T05:35:41;165224.44;;;5.62;93.23
45255;BME280;30989;52.078;21.014;2023-02-21T05:38:06;165227.13;;;5.63;91.46
45255;BME280;30989;52.078;21.014;2023-02-21T05:40:31;165221.78;;;5.61;90.60
45255;BME280;30989;52.078;21.014;2023-02-21T05:42:57;165233.78;;;5.66;88.39
45255;BME280;30989;52.078;21.014;2023-02-21T05:45:22;165252.47;;;5.73;89.44
45255;BME280;30989;52.078;21.014;2023-02-21T05:47:48;165255.16;;;5.74;89.36
45255;BME280;30989;52.078;21.014;2023-02-21T05:50:13;165247.13;;;5.71;89.86
45255;BME280;30989;52.078;21.014;2023-02-21T05:52:40;165247.13;;;5.71;90.52
45255;BME280;30989;52.078;21.014;2023-02-21T05:55:06;165227.13;;;5.63;91.51
45255;BME280;30989;52.078;21.014;2023-02-21T05:57:37;165231.13;;;5.65;91.63
45255;BME280;30989;52.078;21.014;2023-02-21T06:00:02;165227.13;;;5.63;90.65
45255;BME280;30989;52.078;21.014;2023-02-21T06:02:37;165224.44;;;5.62;90.22
45255;BME280;30989;52.078;21.014;2023-02-21T06:05:04;165233.78;;;5.66;89.35
45255;BME280;30989;52.078;21.014;2023-02-21T06:07:30;165231.13;;;5.65;88.20
45255;BME280;30989;52.078;21.014;2023-02-21T06:09:55;165233.78;;;5.66;88.40
45255;BME280;30989;52.078;21.014;2023-02-21T06:12:21;165232.44;;;5.65;89.90
45255;BME280;30989;52.078;21.014;2023-02-21T06:14:46;165228.44;;;5.64;87.48
45255;BME280;30989;52.078;21.014;2023-02-21T06:17:12;165216.44;;;5.59;88.10
45255;BME280;30989;52.078;21.014;2023-02-21T06:19:37;165227.13;;;5.63;86.56
45255;BME280;30989;52.078;21.014;2023-02-21T06:22:03;165217.78;;;5.60;85.32
45255;BME280;30989;52.078;21.014;2023-02-21T06:24:28;165231.13;;;5.65;87.21
45255;BME280;30989;52.078;21.014;2023-02-21T06:26:54;165236.47;;;5.67;85.17
45255;BME280;30989;52.078;21.014;2023-02-21T06:29:19;165245.81;;;5.70;84.93
45255;BME280;30989;52.078;21.014;2023-02-21T06:31:45;165252.47;;;5.73;84.86
45255;BME280;30989;52.078;21.014;2023-02-21T06:34:10;165252.47;;;5.73;84.72
45255;BME280;30989;52.078;21.014;2023-02-21T06:36:36;165260.50;;;5.76;86.08
45255;BME280;30989;52.078;21.014;2023-02-21T06:39:03;165255.16;;;5.74;83.14
45255;BME280;30989;52.078;21.014;2023-02-21T06:41:30;165283.19;;;5.85;83.21
45255;BME280;30989;52.078;21.014;2023-02-21T06:43:57;165292.53;;;5.88;84.06
45255;BME280;30989;52.078;21.014;2023-02-21T06:46:25;165287.19;;;5.86;84.79
45255;BME280;30989;52.078;21.014;2023-02-21T06:48:51;165288.53;;;5.87;84.43
45255;BME280;30989;52.078;21.014;2023-02-21T06:51:17;165303.28;;;5.92;86.34
45255;BME280;30989;52.078;21.014;2023-02-21T06:53:44;165311.28;;;5.95;84.82
45255;BME280;30989;52.078;21.014;2023-02-21T06:56:10;165316.63;;;5.97;86.47
45255;BME280;30989;52.078;21.014;2023-02-21T06:58:36;165327.31;;;6.01;86.62
45255;BME280;30989;52.078;21.014;2023-02-21T07:01:02;165328.63;;;6.02;85.61
45255;BME280;30989;52.078;21.014;2023-02-21T07:03:27;165313.94;;;5.96;86.68
45255;BME280;30989;52.078;21.014;2023-02-21T07:05:53;165311.28;;;5.95;86.44
45255;BME280;30989;52.078;21.014;2023-02-21T07:08:18;165332.66;;;6.03;87.92
45255;BME280;30989;52.078;21.014;2023-02-21T07:10:44;165335.31;;;6.04;88.04
45255;BME280;30989;52.078;21.014;2023-02-21T07:13:09;165338.00;;;6.05;87.34
45255;BME280;30989;52.078;21.014;2023-02-21T07:15:35;165336.66;;;6.05;86.14
45255;BME280;30989;52.078;21.014;2023-02-21T07:18:00;165340.66;;;6.06;87.11
45255;BME280;30989;52.078;21.014;2023-02-21T07:20:26;165346.00;;;6.08;87.42
45255;BME280;30989;52.078;21.014;2023-02-21T07:22:52;165343.31;;;6.07;86.76
45255;BME280;30989;52.078;21.014;2023-02-21T07:25:19;165354.00;;;6.11;85.17
45255;BME280;30989;52.078;21.014;2023-02-21T07:27:46;165335.31;;;6.04;86.75
45255;BME280;30989;52.078;21.014;2023-02-21T07:30:12;165359.34;;;6.13;86.72
45255;BME280;30989;52.078;21.014;2023-02-21T07:32:38;165344.66;;;6.08;88.74
45255;BME280;30989;52.078;21.014;2023-02-21T07:35:04;165313.94;;;5.96;88.82
45255;BME280;30989;52.078;21.014;2023-02-21T07:37:29;165295.25;;;5.89;90.11
45255;BME280;30989;52.078;21.014;2023-02-21T07:39:55;165268.50;;;5.79;91.56
45255;BME280;30989;52.078;21.014;2023-02-21T07:42:20;165241.81;;;5.69;91.85
45255;BME280;30989;52.078;21.014;2023-02-21T07:44:46;165241.81;;;5.69;91.66
45255;BME280;30989;52.078;21.014;2023-02-21T07:47:12;165237.78;;;5.67;91.97
45255;BME280;30989;52.078;21.014;2023-02-21T07:49:38;165249.81;;;5.72;91.57
45255;BME280;30989;52.078;21.014;2023-02-21T07:52:03;165265.84;;;5.78;91.98
45255;BME280;30989;52.078;21.014;2023-02-21T07:54:29;165276.50;;;5.82;91.13
45255;BME280;30989;52.078;21.014;2023-02-21T07:56:54;165268.50;;;5.79;91.52
45255;BME280;30989;52.078;21.014;2023-02-21T07:59:20;165283.19;;;5.85;91.85
45255;BME280;30989;52.078;21.014;2023-02-21T08:01:45;165267.16;;;5.78;91.52
45255;BME280;30989;52.078;21.014;2023-02-21T08:04:12;165276.50;;;5.82;91.63
45255;BME280;30989;52.078;21.014;2023-02-21T08:06:37;165271.19;;;5.80;92.29
45255;BME280;30989;52.078;21.014;2023-02-21T08:09:04;165269.84;;;5.79;92.33
45255;BME280;30989;52.078;21.014;2023-02-21T08:11:30;165252.47;;;5.73;92.59
45255;BME280;30989;52.078;21.014;2023-02-21T08:13:56;165276.50;;;5.82;92.80
45255;BME280;30989;52.078;21.014;2023-02-21T08:16:22;165281.84;;;5.84;93.47
45255;BME280;30989;52.078;21.014;2023-02-21T08:18:48;165300.59;;;5.91;93.04
45255;BME280;30989;52.078;21.014;2023-02-21T08:21:15;165325.97;;;6.01;92.49
45255;BME280;30989;52.078;21.014;2023-02-21T08:23:40;165331.31;;;6.03;92.57
45255;BME280;30989;52.078;21.014;2023-02-21T08:26:06;165359.34;;;6.13;91.39
45255;BME280;30989;52.078;21.014;2023-02-21T08:28:31;165372.72;;;6.19;91.09
45255;BME280;30989;52.078;21.014;2023-02-21T08:30:57;165384.72;;;6.23;90.55
45255;BME280;30989;52.078;21.014;2023-02-21T08:33:22;165402.09;;;6.30;89.93
45255;BME280;30989;52.078;21.014;2023-02-21T08:35:48;165404.75;;;6.31;89.87
45255;BME280;30989;52.078;21.014;2023-02-21T08:38:14;165428.81;;;6.40;90.87
45255;BME280;30989;52.078;21.014;2023-02-21T08:40:39;165432.81;;;6.41;91.43
45255;BME280;30989;52.078;21.014;2023-02-21T08:43:05;165451.50;;;6.49;90.53
45255;BME280;30989;52.078;21.014;2023-02-21T08:45:30;165459.53;;;6.52;89.58
45255;BME280;30989;52.078;21.014;2023-02-21T08:47:58;165455.50;;;6.50;89.45
45255;BME280;30989;52.078;21.014;2023-02-21T08:50:25;165458.19;;;6.51;90.34
45255;BME280;30989;52.078;21.014;2023-02-21T08:52:51;165460.84;;;6.52;89.70
45255;BME280;30989;52.078;21.014;2023-02-21T08:55:17;165436.81;;;6.43;88.51
45255;BME280;30989;52.078;21.014;2023-02-21T08:57:51;165455.50;;;6.50;89.14
45255;BME280;30989;52.078;21.014;2023-02-21T09:00:17;165468.88;;;6.55;89.72
45255;BME280;30989;52.078;21.014;2023-02-21T09:02:44;165472.88;;;6.57;89.04
45255;BME280;30989;52.078;21.014;2023-02-21T09:05:16;165474.22;;;6.57;89.37
45255;BME280;30989;52.078;21.014;2023-02-21T09:07:43;165463.53;;;6.53;89.38
45255;BME280;30989;52.078;21.014;2023-02-21T09:10:10;165459.53;;;6.52;90.87
45255;BME280;30989;52.078;21.014;2023-02-21T09:12:36;165447.50;;;6.47;90.80
45255;BME280;30989;52.078;21.014;2023-02-21T09:15:02;165438.16;;;6.43;91.60
45255;BME280;30989;52.078;21.014;2023-02-21T09:17:28;165459.53;;;6.52;91.53
45255;BME280;30989;52.078;21.014;2023-02-21T09:20:05;165458.19;;;6.51;94.24
45255;BME280;30989;52.078;21.014;2023-02-21T09:22:31;165418.13;;;6.36;96.09
45255;BME280;30989;52.078;21.014;2023-02-21T09:24:57;165395.41;;;6.27;96.16
45255;BME280;30989;52.078;21.014;2023-02-21T09:27:23;165363.34;;;6.15;97.39
45255;BME280;30989;52.078;21.014;2023-02-21T09:30:15;165354.00;;;6.11;97.26
45255;BME280;30989;52.078;21.014;2023-02-21T09:32:42;165351.34;;;6.10;97.91
45255;BME280;30989;52.078;21.014;2023-02-21T09:35:09;165379.38;;;6.21;98.58
45255;BME280;30989;52.078;21.014;2023-02-21T09:37:39;165396.75;;;6.28;97.86
45255;BME280;30989;52.078;21.014;2023-02-21T09:40:17;165387.41;;;6.24;98.78
45255;BME280;30989;52.078;21.014;2023-02-21T09:42:48;165368.69;;;6.17;100.00
45255;BME280;30989;52.078;21.014;2023-02-21T09:45:15;165343.31;;;6.07;100.00
45255;BME280;30989;52.078;21.014;2023-02-21T09:47:43;165325.97;;;6.01;100.00
45255;BME280;30989;52.078;21.014;2023-02-21T09:50:13;165313.94;;;5.96;100.00
45255;BME280;30989;52.078;21.014;2023-02-21T09:52:40;165304.59;;;5.93;100.00
45255;BME280;30989;52.078;21.014;2023-02-21T09:57:41;165327.31;;;6.01;100.00
45255;BME280;30989;52.078;21.014;2023-02-21T10:00:16;165338.00;;;6.05;100.00
45255;BME280;30989;52.078;21.014;2023-02-21T10:08:16;165358.03;;;6.13;100.00
45255;BME280;30989;52.078;21.014;2023-02-21T10:10:48;165359.34;;;6.13;100.00
45255;BME280;30989;52.078;21.014;2023-02-21T10:13:21;165390.06;;;6.25;100.00
45255;BME280;30989;52.078;21.014;2023-02-21T10:16:00;165414.09;;;6.34;100.00
45255;BME280;30989;52.078;21.014;2023-02-21T10:21:01;165455.50;;;6.50;100.00
45255;BME280;30989;52.078;21.014;2023-02-21T10:23:37;165471.53;;;6.56;100.00
45255;BME280;30989;52.078;21.014;2023-02-21T10:26:09;165535.66;;;6.81;100.00
45255;BME280;30989;52.078;21.014;2023-02-21T10:28:36;165586.44;;;7.00;100.00
45255;BME280;30989;52.078;21.014;2023-02-21T10:31:06;165645.25;;;7.22;99.76
45255;BME280;30989;52.078;21.014;2023-02-21T10:33:35;165661.28;;;7.28;99.67
45255;BME280;30989;52.078;21.014;2023-02-21T10:36:01;165669.28;;;7.31;100.00
45255;BME280;30989;52.078;21.014;2023-02-21T10:38:27;165685.34;;;7.37;98.92
45255;BME280;30989;52.078;21.014;2023-02-21T10:43:31;165698.69;;;7.42;99.85
45255;BME280;30989;52.078;21.014;2023-02-21T10:48:44;165829.72;;;7.92;95.04
45255;BME280;30989;52.078;21.014;2023-02-21T10:51:13;165915.28;;;8.25;95.47
45255;BME280;30989;52.078;21.014;2023-02-21T10:53:41;165990.25;;;8.53;91.20
45255;BME280;30989;52.078;21.014;2023-02-21T10:58:48;166122.69;;;9.03;89.08
45255;BME280;30989;52.078;21.014;2023-02-21T11:01:30;166272.56;;;9.60;89.42
45255;BME280;30989;52.078;21.014;2023-02-21T11:06:47;166314.06;;;9.76;81.40
45255;BME280;30989;52.078;21.014;2023-02-21T11:12:22;166295.31;;;9.69;81.89
45255;BME280;30989;52.078;21.014;2023-02-21T11:17:20;166263.19;;;9.57;82.70
45255;BME280;30989;52.078;21.014;2023-02-21T11:19:52;166153.47;;;9.15;79.36
45255;BME280;30989;52.078;21.014;2023-02-21T11:27:22;165942.09;;;8.35;81.14
45255;BME280;30989;52.078;21.014;2023-02-21T11:29:49;165885.88;;;8.14;82.74
45255;BME280;30989;52.078;21.014;2023-02-21T11:32:23;165843.06;;;7.97;84.76
45255;BME280;30989;52.078;21.014;2023-02-21T11:34:50;165832.38;;;7.93;84.69
45255;BME280;30989;52.078;21.014;2023-02-21T11:37:15;165859.13;;;8.03;84.51
45255;BME280;30989;52.078;21.014;2023-02-21T11:39:49;165845.75;;;7.98;85.02
45255;BME280;30989;52.078;21.014;2023-02-21T11:42:26;165847.09;;;7.99;85.20
45255;BME280;30989;52.078;21.014;2023-02-21T11:45:13;165917.97;;;8.26;86.93
45255;BME280;30989;52.078;21.014;2023-02-21T11:47:52;166051.78;;;8.77;83.48
45255;BME280;30989;52.078;21.014;2023-02-21T11:50:26;166114.66;;;9.00;79.98
45255;BME280;30989;52.078;21.014;2023-02-21T11:53:03;166107.97;;;8.98;79.37
45255;BME280;30989;52.078;21.014;2023-02-21T11:55:30;166055.78;;;8.78;80.33
45255;BME280;30989;52.078;21.014;2023-02-21T11:58:09;166000.94;;;8.57;80.88
45255;BME280;30989;52.078;21.014;2023-02-21T12:00:46;165930.00;;;8.30;82.04
45255;BME280;30989;52.078;21.014;2023-02-21T12:03:57;165867.16;;;8.06;82.98
45255;BME280;30989;52.078;21.014;2023-02-21T12:12:10;165992.91;;;8.54;84.56
45255;BME280;30989;52.078;21.014;2023-02-21T12:14:47;166102.59;;;8.96;81.47
45255;BME280;30989;52.078;21.014;2023-02-21T12:17:32;166149.44;;;9.14;79.16
45255;BME280;30989;52.078;21.014;2023-02-21T12:20:20;166178.88;;;9.25;80.71
45255;BME280;30989;52.078;21.014;2023-02-21T12:25:56;166245.78;;;9.50;78.48
45255;BME280;30989;52.078;21.014;2023-02-21T12:28:45;166343.50;;;9.87;77.06
45255;BME280;30989;52.078;21.014;2023-02-21T12:47:29;165839.06;;;7.96;80.05
45255;BME280;30989;52.078;21.014;2023-02-21T12:53:04;165778.91;;;7.73;80.55
45255;BME280;30989;52.078;21.014;2023-02-21T12:58:49;165717.41;;;7.50;82.30
45255;BME280;30989;52.078;21.014;2023-02-21T13:01:35;165682.66;;;7.36;84.59
45255;BME280;30989;52.078;21.014;2023-02-21T13:06:58;165613.16;;;7.10;87.98
45255;BME280;30989;52.078;21.014;2023-02-21T13:09:38;165571.75;;;6.94;86.82
45255;BME280;30989;52.078;21.014;2023-02-21T13:12:11;165562.38;;;6.91;88.06
45255;BME280;30989;52.078;21.014;2023-02-21T13:14:48;165549.03;;;6.86;90.36
45255;BME280;30989;52.078;21.014;2023-02-21T13:17:16;165554.38;;;6.88;89.60
45255;BME280;30989;52.078;21.014;2023-02-21T13:28:54;165565.06;;;6.92;90.06
45255;BME280;30989;52.078;21.014;2023-02-21T13:31:32;165567.72;;;6.93;90.76
45255;BME280;30989;52.078;21.014;2023-02-21T13:34:06;165551.69;;;6.87;91.31
45255;BME280;30989;52.078;21.014;2023-02-21T13:41:35;165475.56;;;6.58;92.97
45255;BME280;30989;52.078;21.014;2023-02-21T13:44:22;165448.84;;;6.47;93.08
45255;BME280;30989;52.078;21.014;2023-02-21T13:55:22;165440.81;;;6.44;97.63
45255;BME280;30989;52.078;21.014;2023-02-21T13:58:34;165458.19;;;6.51;94.25
45255;BME280;30989;52.078;21.014;2023-02-21T14:08:26;165605.16;;;7.07;91.55
45255;BME280;30989;52.078;21.014;2023-02-21T14:11:00;165625.19;;;7.15;90.74
45255;BME280;30989;52.078;21.014;2023-02-21T14:13:56;165607.81;;;7.08;89.66
45255;BME280;30989;52.078;21.014;2023-02-21T14:19:07;165579.75;;;6.97;90.60
45255;BME280;30989;52.078;21.014;2023-02-21T14:21:38;165567.72;;;6.93;90.96
45255;BME280;30989;52.078;21.014;2023-02-21T14:24:22;165563.72;;;6.91;91.50
45255;BME280;30989;52.078;21.014;2023-02-21T14:29:35;165569.06;;;6.93;92.12
45255;BME280;30989;52.078;21.014;2023-02-21T14:34:40;165543.69;;;6.84;92.95
45255;BME280;30989;52.078;21.014;2023-02-21T14:37:18;165535.66;;;6.81;94.05
45255;BME280;30989;52.078;21.014;2023-02-21T14:45:48;165486.25;;;6.62;95.48
45255;BME280;30989;52.078;21.014;2023-02-21T14:54:31;165462.19;;;6.53;95.50
45255;BME280;30989;52.078;21.014;2023-02-21T15:02:34;165451.50;;;6.49;95.25
45255;BME280;30989;52.078;21.014;2023-02-21T15:10:29;165435.47;;;6.42;93.66
45255;BME280;30989;52.078;21.014;2023-02-21T15:12:57;165431.47;;;6.41;93.25
45255;BME280;30989;52.078;21.014;2023-02-21T15:15:27;165423.47;;;6.38;94.74
45255;BME280;30989;52.078;21.014;2023-02-21T15:18:00;165404.75;;;6.31;94.80
45255;BME280;30989;52.078;21.014;2023-02-21T15:20:26;165404.75;;;6.31;95.12
45255;BME280;30989;52.078;21.014;2023-02-21T15:23:09;165398.09;;;6.28;95.19
45255;BME280;30989;52.078;21.014;2023-02-21T15:25:35;165383.41;;;6.23;94.78
45255;BME280;30989;52.078;21.014;2023-02-21T15:28:05;165374.03;;;6.19;94.24
45255;BME280;30989;52.078;21.014;2023-02-21T15:30:36;165390.06;;;6.25;94.74
45255;BME280;30989;52.078;21.014;2023-02-21T15:35:52;165414.09;;;6.34;93.78
45255;BME280;30989;52.078;21.014;2023-02-21T15:38:32;165410.09;;;6.33;94.23
45255;BME280;30989;52.078;21.014;2023-02-21T15:41:01;165407.44;;;6.32;93.68
45255;BME280;30989;52.078;21.014;2023-02-21T15:46:17;165388.72;;;6.25;95.22
45255;BME280;30989;52.078;21.014;2023-02-21T15:48:45;165380.72;;;6.22;94.98
45255;BME280;30989;52.078;21.014;2023-02-21T15:51:11;165362.03;;;6.14;94.73
45255;BME280;30989;52.078;21.014;2023-02-21T15:53:37;165378.06;;;6.21;95.08